Sri Jayavardhanapura, Sri Lanka
Current Conditions -  °F | °C
As of 11:10 AM on Thursday 27 Nov 2014 (Local Time) from VCBI Reporting Station
Broken Clouds Broken Clouds  
Wind Chill: 81°   Ceiling: 1600
Heat Index: 85°   Visibility: 6mi
Dew Point: 73°   Wind: 9mph
Humidity: 79%   Direction: 20°NNE
Pressure: 29.74"   Gusts: NA
Location:  6.9°N, 79.91°E
Report Text: VCBI 270510Z 02008KT 9999 BKN016 27/23 Q1007 NOSIG
Loading
Personal Weather Stations






























Interactive Weather Map New forecast layout! Learn more

10-Day Weather Forecast

Advertisements
Track Severe Weather on mobile